Time;durP1;ratioP1;P1;durP2;ratioP2;P2;SDS_P1;SDS_P2;PMS_P1;PMS_P2;Temp;Humidity;BMP_temperature;BMP_pressure;BME280_temperature;BME280_humidity;BME280_pressure;Samples;Min_cycle;Max_cycle;Signal;HPM_P1;HPM_P2
2023/01/15 00:01:27;;;;;;;1.73;1.00;;;;;;;15.61;45.68;92670.81;4983249;28;20130;-92
2023/01/15 00:03:55;;;;;;;3.83;1.73;;;;;;;15.59;45.50;92667.84;4983435;28;20046;-93
2023/01/15 00:06:40;;;;;;;1.65;1.17;;;;;;;15.58;45.76;92662.94;4990654;28;20066;-92
2023/01/15 00:09:06;;;;;;;1.85;1.23;;;;;;;15.63;45.67;92656.69;5030100;23;20052;-91
2023/01/15 00:11:35;;;;;;;1.08;0.98;;;;;;;15.64;45.57;92658.88;5042876;22;20045;-92
2023/01/15 00:14:01;;;;;;;2.13;1.10;;;;;;;15.61;45.83;92659.16;5033523;28;20022;-92
2023/01/15 00:16:27;;;;;;;2.22;1.23;;;;;;;15.63;45.66;92657.41;5018942;28;20785;-92
2023/01/15 00:18:59;;;;;;;1.88;1.10;;;;;;;15.65;45.40;92649.47;5008973;23;20570;-92
2023/01/15 00:21:33;;;;;;;1.55;1.15;;;;;;;15.63;45.75;92651.22;4972957;23;20023;-92
2023/01/15 00:29:27;;;;;;;1.02;0.90;;;;;;;15.62;45.49;92642.31;5017697;28;20207;-92
2023/01/15 00:31:56;;;;;;;2.38;1.15;;;;;;;15.61;45.83;92637.38;4974381;28;20026;-92
2023/01/15 00:34:22;;;;;;;2.00;0.98;;;;;;;15.59;45.68;92631.72;5013690;23;20029;-92
2023/01/15 00:36:50;;;;;;;1.17;0.90;;;;;;;15.60;45.78;92638.63;5015459;23;20030;-92
2023/01/15 00:39:15;;;;;;;2.15;1.20;;;;;;;15.56;45.80;92622.59;5033596;22;20025;-91
2023/01/15 00:41:45;;;;;;;1.65;0.90;;;;;;;15.63;45.46;92632.16;5021840;23;20042;-92
2023/01/15 00:44:10;;;;;;;1.30;1.02;;;;;;;15.63;45.58;92618.53;5044236;22;20057;-93
2023/01/15 00:46:36;;;;;;;1.17;0.80;;;;;;;15.61;45.76;92631.94;5048890;28;20033;-92
2023/01/15 00:49:02;;;;;;;2.03;1.10;;;;;;;15.61;45.55;92621.78;5034018;28;20037;-92
2023/01/15 00:51:28;;;;;;;0.90;0.65;;;;;;;15.59;45.54;92623.56;5034330;28;20045;-92
2023/01/15 00:53:54;;;;;;;2.03;1.00;;;;;;;15.52;45.83;92622.09;5036174;23;20056;-93
2023/01/15 00:56:19;;;;;;;1.02;0.82;;;;;;;15.55;45.71;92621.09;5014500;28;20052;-92
2023/01/15 00:58:54;;;;;;;1.17;0.90;;;;;;;15.55;45.79;92612.16;5000898;28;20042;-92
2023/01/15 01:01:19;;;;;;;1.35;1.00;;;;;;;15.61;45.81;92596.50;5041432;23;20086;-91
2023/01/15 01:03:49;;;;;;;2.10;1.17;;;;;;;15.56;45.99;92608.22;5030159;23;20053;-92
2023/01/15 01:06:15;;;;;;;1.52;0.90;;;;;;;15.56;45.49;92606.25;4999495;28;20045;-92
2023/01/15 01:08:42;;;;;;;1.75;1.00;;;;;;;15.59;45.82;92613.38;4997186;28;20022;-92
2023/01/15 01:11:09;;;;;;;2.10;0.80;;;;;;;15.59;45.91;92605.19;5020175;23;20041;-93
2023/01/15 01:13:35;;;;;;;1.23;0.90;;;;;;;15.66;45.52;92584.81;5030198;28;20036;-93
2023/01/15 01:16:00;;;;;;;1.23;0.93;;;;;;;15.58;45.84;92595.56;5010254;28;20026;-93
2023/01/15 01:18:28;;;;;;;1.45;0.82;;;;;;;15.70;45.22;92582.56;5010281;28;20074;-91
2023/01/15 01:20:53;;;;;;;1.92;1.00;;;;;;;15.64;45.49;92579.16;5013761;28;20041;-92
2023/01/15 01:23:28;;;;;;;1.15;0.85;;;;;;;15.62;45.11;92574.22;5011680;28;20042;-92
2023/01/15 01:25:53;;;;;;;1.13;0.68;;;;;;;15.63;45.35;92555.88;5019653;23;20104;-92
2023/01/15 01:28:19;;;;;;;1.92;0.70;;;;;;;15.63;45.65;92589.31;5011186;28;20037;-93
2023/01/15 01:30:52;;;;;;;1.08;0.73;;;;;;;15.62;45.39;92576.94;5054754;28;20020;-92
2023/01/15 01:33:17;;;;;;;1.73;1.20;;;;;;;15.65;45.48;92570.47;5054170;22;20137;-91
2023/01/15 01:35:50;;;;;;;1.23;0.98;;;;;;;15.62;45.73;92565.28;5042536;23;20049;-93
2023/01/15 01:38:16;;;;;;;1.15;0.93;;;;;;;15.63;45.65;92564.78;5033427;28;20021;-92
2023/01/15 01:40:51;;;;;;;1.48;0.80;;;;;;;15.58;45.70;92553.97;5060276;22;20022;-91
2023/01/15 01:43:19;;;;;;;1.40;0.85;;;;;;;15.61;45.50;92555.66;5041516;22;20017;-92
2023/01/15 01:45:46;;;;;;;1.67;0.95;;;;;;;15.57;45.55;92558.69;5039109;23;20060;-93
2023/01/15 01:48:12;;;;;;;1.25;0.80;;;;;;;15.56;45.89;92565.38;5034542;28;20097;-92
2023/01/15 01:50:39;;;;;;;2.53;1.10;;;;;;;15.60;45.60;92560.34;5019203;28;20014;-92
2023/01/15 01:53:07;;;;;;;0.93;0.80;;;;;;;15.57;45.61;92547.06;5022273;22;20046;-92
2023/01/15 01:55:49;;;;;;;0.90;0.70;;;;;;;15.62;45.59;92560.59;5009396;23;20785;-93
2023/01/15 01:58:14;;;;;;;0.85;0.73;;;;;;;15.62;45.41;92560.59;5056821;22;20036;-92
2023/01/15 02:00:48;;;;;;;0.93;0.63;;;;;;;15.59;45.75;92558.19;5002468;28;20024;-93
2023/01/15 02:03:20;;;;;;;1.52;0.80;;;;;;;15.62;45.71;92554.41;4996031;28;20033;-91
2023/01/15 02:05:49;;;;;;;0.90;0.73;;;;;;;15.57;45.75;92553.25;5029856;22;20048;-93
2023/01/15 02:08:15;;;;;;;0.80;0.80;;;;;;;15.58;45.55;92549.25;5061279;22;20021;-91
2023/01/15 02:10:40;;;;;;;0.88;0.70;;;;;;;15.63;45.63;92564.06;5035056;28;20022;-93
2023/01/15 02:15:54;;;;;;;0.60;0.60;;;;;;;15.62;45.46;92541.53;5064865;22;20733;-92
2023/01/15 02:18:19;;;;;;;1.77;0.98;;;;;;;15.56;45.63;92538.16;5038994;28;20036;-92
2023/01/15 02:21:00;;;;;;;0.85;0.52;;;;;;;15.60;45.38;92530.41;5057831;22;20045;-91
2023/01/15 02:23:44;;;;;;;0.98;0.73;;;;;;;15.55;45.59;92531.19;5031958;28;20021;-92
2023/01/15 02:26:22;;;;;;;0.88;0.68;;;;;;;15.61;45.03;92537.31;5046144;22;20049;-92
2023/01/15 02:28:49;;;;;;;1.00;0.60;;;;;;;15.61;45.47;92533.84;5029692;28;20042;-91
2023/01/15 02:31:36;;;;;;;1.00;0.70;;;;;;;15.61;45.42;92537.31;5009476;28;20030;-91
2023/01/15 02:34:15;;;;;;;1.25;0.80;;;;;;;15.57;45.46;92527.97;5030463;23;20053;-92
2023/01/15 02:36:42;;;;;;;0.63;0.55;;;;;;;15.55;45.49;92530.47;5046812;28;20045;-91
2023/01/15 02:39:17;;;;;;;1.08;0.90;;;;;;;15.58;45.38;92530.19;5018266;28;20034;-92
2023/01/15 02:41:48;;;;;;;1.15;0.77;;;;;;;15.58;45.31;92521.28;5017318;28;20033;-92
2023/01/15 02:44:15;;;;;;;0.63;0.57;;;;;;;15.64;45.63;92519.22;5035410;22;20056;-92
2023/01/15 02:46:55;;;;;;;1.15;0.90;;;;;;;15.60;45.67;92518.75;5030161;28;20049;-92
2023/01/15 02:49:21;;;;;;;1.35;0.60;;;;;;;15.59;45.65;92509.16;4996881;28;20026;-92
2023/01/15 02:52:15;;;;;;;1.23;1.13;;;;;;;15.58;45.28;92502.97;5001935;28;20042;-91
2023/01/15 02:54:55;;;;;;;0.73;0.60;;;;;;;15.62;45.55;92506.09;4998857;28;20061;-92
2023/01/15 02:57:21;;;;;;;0.40;0.40;;;;;;;15.58;45.59;92505.69;5033662;23;20099;-92
2023/01/15 02:59:47;;;;;;;1.02;0.73;;;;;;;15.60;45.57;92491.53;4990929;28;20105;-91
2023/01/15 03:02:26;;;;;;;0.90;0.70;;;;;;;15.63;45.53;92495.94;4987437;22;20030;-92
2023/01/15 03:05:21;;;;;;;1.30;0.80;;;;;;;15.59;45.36;92488.06;5031037;23;20050;-92
2023/01/15 03:07:50;;;;;;;0.73;0.40;;;;;;;15.63;45.31;92487.78;5043194;28;20048;-92
2023/01/15 03:10:15;;;;;;;0.88;0.68;;;;;;;15.60;45.56;92472.44;5026133;22;20041;-91
2023/01/15 03:13:03;;;;;;;0.77;0.60;;;;;;;15.59;45.21;92481.91;4994477;23;20045;-92
2023/01/15 03:18:52;;;;;;;1.52;0.60;;;;;;;15.60;45.55;92489.53;5039183;22;20095;-93
2023/01/15 03:21:21;;;;;;;1.10;0.70;;;;;;;15.60;45.51;92486.06;5081148;22;20060;-92
2023/01/15 03:23:50;;;;;;;0.80;0.60;;;;;;;15.56;45.42;92489.13;5043210;22;20122;-92
2023/01/15 03:26:15;;;;;;;0.70;0.50;;;;;;;15.56;45.33;92483.66;5046172;23;20057;-92
2023/01/15 03:28:41;;;;;;;1.08;0.60;;;;;;;15.56;45.80;92482.94;4990554;28;20030;-92
2023/01/15 03:31:06;;;;;;;0.90;0.73;;;;;;;15.61;45.27;92482.09;5023215;28;20068;-92
2023/01/15 03:33:41;;;;;;;0.70;0.60;;;;;;;15.62;45.43;92499.91;5004276;28;20039;-93
2023/01/15 03:36:15;;;;;;;0.60;0.50;;;;;;;15.58;45.29;92500.22;4970831;28;20081;-92
2023/01/15 03:38:40;;;;;;;0.43;0.43;;;;;;;15.58;45.62;92494.78;4987862;28;20027;-93
2023/01/15 03:41:29;;;;;;;0.52;0.50;;;;;;;15.60;45.53;92496.97;4954210;28;20044;-91
2023/01/15 03:44:21;;;;;;;2.30;0.65;;;;;;;15.56;45.57;92494.56;5016339;22;20149;-91
2023/01/15 03:47:12;;;;;;;0.60;0.52;;;;;;;15.59;45.42;92496.22;4972742;28;20038;-91
2023/01/15 03:49:59;;;;;;;1.75;0.77;;;;;;;15.61;45.36;92487.53;4985057;28;20034;-92
2023/01/15 03:52:31;;;;;;;0.80;0.52;;;;;;;15.65;45.13;92488.00;4983158;28;20039;-92
2023/01/15 03:55:10;;;;;;;0.68;0.50;;;;;;;15.64;45.32;92481.06;4975595;23;20102;-92
2023/01/15 03:57:37;;;;;;;0.80;0.60;;;;;;;15.59;45.18;92487.34;4977254;28;20035;-92
2023/01/15 04:00:09;;;;;;;0.52;0.43;;;;;;;15.55;45.53;92482.16;4978171;28;20433;-92
2023/01/15 04:03:03;;;;;;;1.38;0.75;;;;;;;15.57;45.12;92490.59;4982286;28;20026;-92
2023/01/15 04:05:49;;;;;;;0.70;0.50;;;;;;;15.55;45.39;92487.59;4979114;28;20087;-93
2023/01/15 04:08:14;;;;;;;0.68;0.47;;;;;;;15.56;45.23;92496.53;4987312;22;20516;-92
2023/01/15 04:10:56;;;;;;;0.40;0.40;;;;;;;15.60;45.01;92489.53;5017901;28;20041;-91
2023/01/15 04:13:34;;;;;;;0.90;0.57;;;;;;;15.62;45.21;92494.47;5037099;28;20034;-92
2023/01/15 04:15:59;;;;;;;0.82;0.50;;;;;;;15.61;45.13;92493.72;5018220;28;20030;-91
2023/01/15 04:18:25;;;;;;;0.80;0.40;;;;;;;15.59;45.07;92490.06;5016819;28;20049;-92
2023/01/15 04:20:50;;;;;;;0.90;0.43;;;;;;;15.57;45.30;92492.56;5021462;28;20021;-92
2023/01/15 04:23:16;;;;;;;0.60;0.60;;;;;;;15.55;45.38;92495.78;5016173;23;20034;-93
2023/01/15 04:25:41;;;;;;;0.68;0.50;;;;;;;15.55;45.56;92489.59;5020787;23;20044;-92
2023/01/15 04:30:38;;;;;;;0.50;0.50;;;;;;;15.62;45.22;92491.75;5039080;22;20063;-92
2023/01/15 04:35:32;;;;;;;0.98;0.47;;;;;;;15.54;45.38;92467.06;5029291;28;20042;-92
2023/01/15 04:37:59;;;;;;;0.90;0.50;;;;;;;15.54;45.43;92469.78;4998949;28;20511;-93
2023/01/15 04:45:54;;;;;;;0.85;0.50;;;;;;;15.58;45.24;92418.50;5032571;22;20049;-92
2023/01/15 04:48:20;;;;;;;0.90;0.50;;;;;;;15.59;45.44;92413.81;5036775;28;20037;-93
2023/01/15 04:50:52;;;;;;;0.57;0.40;;;;;;;15.56;45.46;92401.22;5029534;28;20044;-91
2023/01/15 04:53:17;;;;;;;0.85;0.40;;;;;;;15.55;45.47;92405.16;5018978;28;20033;-91
2023/01/15 04:55:49;;;;;;;0.73;0.52;;;;;;;15.61;45.25;92400.38;5003032;28;20037;-92
2023/01/15 04:58:14;;;;;;;0.80;0.60;;;;;;;15.62;44.99;92388.97;5033727;23;20052;-92
2023/01/15 05:00:43;;;;;;;0.60;0.43;;;;;;;15.59;44.88;92383.84;5037177;23;20044;-91
2023/01/15 05:03:08;;;;;;;0.50;0.32;;;;;;;15.55;45.50;92377.91;5046661;22;20097;-92
2023/01/15 05:05:34;;;;;;;0.40;0.30;;;;;;;15.58;45.22;92376.91;5027212;22;20042;-91
2023/01/15 05:08:02;;;;;;;0.50;0.45;;;;;;;15.57;45.05;92376.19;5026196;22;20046;-92
2023/01/15 05:10:28;;;;;;;0.43;0.43;;;;;;;15.59;45.17;92373.66;5012209;22;20043;-92
2023/01/15 05:12:53;;;;;;;0.63;0.47;;;;;;;15.57;45.42;92373.47;5022760;28;20057;-93
2023/01/15 05:15:19;;;;;;;0.80;0.40;;;;;;;15.60;45.13;92358.03;5029475;28;20057;-93
2023/01/15 05:17:44;;;;;;;0.20;0.20;;;;;;;15.60;45.29;92349.88;5018286;28;20059;-93
2023/01/15 05:22:39;;;;;;;1.00;0.38;;;;;;;15.55;45.11;92337.06;5030291;28;20046;-93
2023/01/15 05:25:05;;;;;;;0.40;0.30;;;;;;;15.57;45.39;92335.31;4974641;28;20077;-92
2023/01/15 05:27:30;;;;;;;0.50;0.40;;;;;;;15.59;45.42;92340.25;4991053;28;20069;-94
2023/01/15 05:29:55;;;;;;;0.70;0.40;;;;;;;15.58;45.38;92327.88;4969621;28;20528;-93
2023/01/15 05:32:21;;;;;;;0.60;0.50;;;;;;;15.60;45.20;92323.38;4947705;28;20043;-91
2023/01/15 05:34:46;;;;;;;0.70;0.50;;;;;;;15.59;45.21;92319.16;4930514;28;20045;-93
2023/01/15 05:37:12;;;;;;;0.82;0.40;;;;;;;15.63;45.24;92313.44;4934214;28;20046;-92
2023/01/15 05:39:38;;;;;;;0.40;0.40;;;;;;;15.64;45.34;92304.72;4921135;28;20039;-94
2023/01/15 05:42:04;;;;;;;118.63;87.32;;;;;;;15.62;45.01;92301.78;4920784;28;20073;-93
2023/01/15 05:44:31;;;;;;;3.75;3.38;;;;;;;15.70;44.95;92291.75;4923778;28;20043;-93
2023/01/15 05:47:04;;;;;;;1.25;0.80;;;;;;;15.61;44.95;92294.88;4939363;28;20057;-92
2023/01/15 05:49:31;;;;;;;1.17;0.63;;;;;;;15.61;45.14;92288.69;4951235;28;20077;-93
2023/01/15 05:51:57;;;;;;;1.83;0.90;;;;;;;15.61;45.27;92297.59;4930840;28;20047;-92
2023/01/15 05:54:24;;;;;;;3.83;1.38;;;;;;;15.59;45.27;92289.19;4931754;28;20053;-92
2023/01/15 05:56:49;;;;;;;4.60;1.52;;;;;;;15.61;45.26;92288.69;4924295;29;20070;-91
2023/01/15 05:59:17;;;;;;;3.60;1.90;;;;;;;15.59;45.20;92286.47;4923684;28;20082;-93
2023/01/15 06:01:51;;;;;;;4.57;1.80;;;;;;;15.59;45.33;92274.88;4934093;28;20049;-92
2023/01/15 06:04:19;;;;;;;2.42;1.80;;;;;;;15.58;45.31;92278.84;4971549;28;20034;-93
2023/01/15 06:06:45;;;;;;;2.45;2.00;;;;;;;15.57;45.41;92274.66;4975171;28;20561;-93
2023/01/15 06:09:11;;;;;;;2.63;2.00;;;;;;;15.52;45.53;92273.47;4973516;28;20038;-93
2023/01/15 06:11:36;;;;;;;6.57;4.68;;;;;;;15.62;45.26;92268.38;4972088;28;20034;-93
2023/01/15 06:14:02;;;;;;;10.02;6.55;;;;;;;15.64;44.87;92277.50;4968752;28;20523;-92
2023/01/15 06:16:29;;;;;;;6.45;4.90;;;;;;;15.62;45.25;92260.94;4983430;28;20038;-93
2023/01/15 06:19:00;;;;;;;5.53;4.28;;;;;;;15.60;45.29;92268.88;4969464;28;20046;-94
2023/01/15 06:21:25;;;;;;;6.03;3.40;;;;;;;15.58;45.61;92270.69;4969099;28;20039;-93
2023/01/15 06:23:52;;;;;;;5.07;2.95;;;;;;;15.55;45.58;92263.53;4979906;28;20665;-92
2023/01/15 06:26:17;;;;;;;3.90;3.00;;;;;;;15.63;45.08;92264.38;4965808;28;20056;-94
2023/01/15 06:28:43;;;;;;;4.63;3.05;;;;;;;15.56;45.44;92257.59;4968538;28;20043;-93
2023/01/15 06:31:10;;;;;;;3.90;2.55;;;;;;;15.54;45.65;92249.16;4965758;28;20113;-92
2023/01/15 06:33:36;;;;;;;3.63;2.65;;;;;;;15.52;45.51;92259.09;4986483;28;20046;-95
2023/01/15 06:36:05;;;;;;;3.50;2.60;;;;;;;15.55;45.70;92258.06;4966972;28;20035;-95
2023/01/15 06:38:31;;;;;;;4.13;3.00;;;;;;;15.54;45.43;92245.72;4968055;28;20034;-93
2023/01/15 06:41:03;;;;;;;4.88;2.28;;;;;;;15.57;45.58;92244.69;4965523;28;20073;-93
2023/01/15 06:48:57;;;;;;;3.63;2.47;;;;;;;15.58;45.22;92255.06;4987917;28;20047;-91
2023/01/15 06:51:22;;;;;;;6.35;2.08;;;;;;;15.59;45.21;92245.63;4982712;28;20046;-92
2023/01/15 06:53:50;;;;;;;3.90;2.80;;;;;;;15.64;45.32;92241.34;4968279;28;20045;-93
2023/01/15 06:56:16;;;;;;;16.52;13.15;;;;;;;15.62;45.56;92244.59;4965636;28;20552;-93
2023/01/15 06:58:42;;;;;;;12.90;10.93;;;;;;;15.60;45.56;92232.75;4980584;28;20620;-93
2023/01/15 07:01:11;;;;;;;12.95;9.13;;;;;;;15.67;45.43;92232.88;4975509;28;20047;-93
2023/01/15 07:03:37;;;;;;;4.82;2.67;;;;;;;15.68;45.32;92230.88;4959455;28;20042;-93
2023/01/15 07:06:07;;;;;;;3.40;2.90;;;;;;;15.65;45.78;92226.47;4956363;28;20113;-94
2023/01/15 07:08:41;;;;;;;5.10;3.00;;;;;;;15.68;45.37;92225.44;4966945;28;20034;-95
2023/01/15 07:11:08;;;;;;;21.42;19.08;;;;;;;15.73;45.45;92222.63;4995395;28;20072;-94
2023/01/15 07:13:37;;;;;;;135.18;93.32;;;;;;;15.70;45.11;92233.81;4969275;28;20267;-92
2023/01/15 07:16:03;;;;;;;5.45;4.05;;;;;;;15.71;45.42;92232.56;4979605;28;20050;-92
2023/01/15 07:18:29;;;;;;;6.35;4.63;;;;;;;15.66;45.39;92225.94;4986049;28;20038;-92
2023/01/15 07:20:55;;;;;;;7.47;5.45;;;;;;;15.63;45.43;92229.72;4971900;28;20050;-92
2023/01/15 07:23:23;;;;;;;8.32;5.68;;;;;;;15.59;45.43;92239.47;4971465;28;20046;-92
2023/01/15 07:25:51;;;;;;;6.05;4.97;;;;;;;15.60;45.76;92238.91;4990418;28;20038;-95
2023/01/15 07:28:20;;;;;;;7.15;4.82;;;;;;;15.65;45.01;92229.94;4969112;28;20038;-93
2023/01/15 07:30:45;;;;;;;6.95;5.47;;;;;;;15.63;45.38;92243.34;4971604;28;20088;-93
2023/01/15 07:33:11;;;;;;;6.15;4.65;;;;;;;15.59;45.78;92240.19;4976482;28;20038;-92
2023/01/15 07:35:38;;;;;;;5.97;4.65;;;;;;;15.64;45.42;92238.63;4986773;28;20091;-93
2023/01/15 07:38:03;;;;;;;7.22;4.70;;;;;;;15.60;45.80;92251.81;4974410;28;20492;-93
2023/01/15 07:40:29;;;;;;;5.68;4.75;;;;;;;15.61;45.40;92256.75;4973386;28;20041;-92
2023/01/15 07:49:44;;;;;;;5.90;4.80;;;;;;;15.67;45.57;92256.66;4992372;28;20129;-93
2023/01/15 07:51:14;;;;;;;6.88;4.47;;;;;;;15.61;45.74;92267.63;4996849;28;20068;-93
2023/01/15 07:53:41;;;;;;;4.43;3.55;;;;;;;15.66;45.58;92269.53;4989260;28;20034;-93
2023/01/15 07:56:07;;;;;;;5.10;4.15;;;;;;;15.63;45.55;92265.13;4986334;28;20060;-92
2023/01/15 07:58:34;;;;;;;7.53;4.00;;;;;;;15.57;45.59;92259.06;4970110;28;20030;-93
2023/01/15 08:01:00;;;;;;;8.07;3.83;;;;;;;15.66;45.26;92279.69;4971230;28;20049;-93
2023/01/15 08:03:26;;;;;;;5.07;4.30;;;;;;;15.63;45.74;92289.63;4969457;28;20045;-92
2023/01/15 08:05:54;;;;;;;11.70;8.70;;;;;;;15.68;45.56;92274.47;4985428;28;20037;-93
2023/01/15 08:08:19;;;;;;;8.60;7.00;;;;;;;15.64;45.46;92282.22;4970714;28;20045;-93
2023/01/15 08:16:16;;;;;;;8.07;6.43;;;;;;;15.64;45.61;92261.16;4993750;28;20044;-93
2023/01/15 08:18:44;;;;;;;7.15;5.70;;;;;;;15.73;45.22;92247.13;4976635;28;20026;-92
2023/01/15 08:21:14;;;;;;;6.50;5.45;;;;;;;15.66;45.34;92247.00;4980866;28;20050;-94
2023/01/15 08:23:40;;;;;;;7.43;5.85;;;;;;;15.64;45.74;92231.19;4970497;28;20045;-93
2023/01/15 08:26:07;;;;;;;6.25;4.78;;;;;;;15.62;45.72;92230.97;4983028;28;20034;-93
2023/01/15 08:28:42;;;;;;;6.53;4.80;;;;;;;15.71;45.68;92221.66;4985406;28;20042;-93
2023/01/15 08:31:07;;;;;;;6.38;4.43;;;;;;;15.65;45.75;92218.28;4986357;28;20050;-92
2023/01/15 08:33:33;;;;;;;5.57;4.50;;;;;;;15.63;45.90;92213.38;4971171;28;20035;-93
2023/01/15 08:35:58;;;;;;;8.85;5.05;;;;;;;15.62;45.67;92217.34;4967414;28;20192;-93
2023/01/15 08:38:24;;;;;;;4.95;3.95;;;;;;;15.60;45.76;92208.97;4982312;28;20045;-92
2023/01/15 08:40:59;;;;;;;6.35;4.53;;;;;;;15.63;45.49;92207.91;4966559;28;20100;-93
2023/01/15 08:43:27;;;;;;;5.95;4.50;;;;;;;15.67;45.73;92208.34;4967449;28;20035;-93
2023/01/15 08:45:56;;;;;;;7.40;4.80;;;;;;;15.65;45.66;92191.78;4982850;28;20088;-93
2023/01/15 08:48:23;;;;;;;5.50;4.90;;;;;;;15.69;45.49;92196.94;4966171;28;20035;-92
2023/01/15 08:51:03;;;;;;;6.07;4.43;;;;;;;15.72;45.28;92193.16;4952788;28;20035;-95
2023/01/15 08:53:32;;;;;;;4.75;4.13;;;;;;;15.68;45.52;92190.75;4964400;28;20045;-94
2023/01/15 08:55:57;;;;;;;7.32;5.82;;;;;;;15.66;45.88;92189.81;4962167;28;20039;-94
2023/01/15 08:58:49;;;;;;;12.15;9.65;;;;;;;15.69;45.72;92194.22;4960599;28;20050;-95
2023/01/15 09:01:40;;;;;;;15.32;11.05;;;;;;;15.67;45.56;92200.19;4958809;28;20058;-95
2023/01/15 09:04:06;;;;;;;14.30;9.50;;;;;;;15.66;45.72;92201.44;4897566;29;20051;-94
2023/01/15 09:06:35;;;;;;;8.70;7.20;;;;;;;15.68;45.73;92204.38;4898957;29;20228;-94
2023/01/15 09:09:04;;;;;;;8.63;7.15;;;;;;;15.67;45.69;92199.44;4914495;29;20044;-94
2023/01/15 09:11:31;;;;;;;7.57;5.68;;;;;;;15.68;45.55;92198.19;4912292;29;20043;-95
2023/01/15 09:13:57;;;;;;;7.72;6.00;;;;;;;15.70;45.64;92198.41;4911442;29;20040;-95
2023/01/15 09:16:25;;;;;;;10.07;5.65;;;;;;;15.76;45.60;92190.88;4900121;29;20609;-92
2023/01/15 09:18:51;;;;;;;7.25;5.38;;;;;;;15.67;45.70;92191.28;4919009;29;20044;-93
2023/01/15 09:21:19;;;;;;;7.53;6.03;;;;;;;15.69;45.59;92194.22;4903153;29;20096;-93
2023/01/15 09:23:44;;;;;;;6.45;5.65;;;;;;;15.67;45.56;92188.53;4902358;29;20039;-92
2023/01/15 09:26:36;;;;;;;7.13;5.18;;;;;;;15.74;45.53;92193.38;4901727;29;20741;-93
2023/01/15 09:29:03;;;;;;;6.70;5.03;;;;;;;15.75;45.54;92189.41;4912342;29;20047;-93
2023/01/15 09:31:28;;;;;;;7.97;5.88;;;;;;;15.77;45.86;92192.34;4894611;29;20524;-92
2023/01/15 09:33:55;;;;;;;12.45;9.88;;;;;;;15.70;45.75;92182.06;4923598;29;20157;-93
2023/01/15 09:36:23;;;;;;;11.65;9.15;;;;;;;15.70;45.79;92188.25;4911792;29;20044;-92
2023/01/15 09:38:50;;;;;;;12.32;8.85;;;;;;;15.75;45.51;92179.25;4898102;29;20254;-92
2023/01/15 09:44:07;;;;;;;10.65;8.18;;;;;;;15.72;45.82;92195.91;4941675;28;20057;-93
2023/01/15 09:46:36;;;;;;;10.32;8.18;;;;;;;15.70;46.05;92187.50;4939692;28;20046;-93
2023/01/15 09:49:20;;;;;;;10.77;8.25;;;;;;;15.77;45.47;92192.34;4957585;28;20039;-93
2023/01/15 09:51:54;;;;;;;9.25;6.82;;;;;;;15.75;45.89;92192.84;4949432;28;20038;-93
2023/01/15 09:54:47;;;;;;;8.00;6.55;;;;;;;15.76;45.81;92188.88;4939208;28;20066;-94
2023/01/15 09:57:12;;;;;;;8.98;6.90;;;;;;;15.72;45.84;92183.00;4938056;28;20054;-93
2023/01/15 09:59:39;;;;;;;10.80;6.90;;;;;;;15.82;45.96;92191.47;4922008;28;20039;-92
2023/01/15 10:02:18;;;;;;;11.38;6.75;;;;;;;15.76;45.99;92185.41;4935566;28;20047;-92
2023/01/15 10:04:46;;;;;;;16.38;7.95;;;;;;;15.80;45.71;92180.41;4937025;28;20046;-93
2023/01/15 10:07:35;;;;;;;7.40;6.38;;;;;;;15.75;45.59;92175.78;4924781;28;20407;-92
2023/01/15 10:10:04;;;;;;;12.90;9.00;;;;;;;15.74;45.74;92169.59;4990113;28;20038;-92
2023/01/15 10:12:37;;;;;;;9.60;5.97;;;;;;;15.76;45.92;92163.63;4960780;28;20050;-93
2023/01/15 10:15:23;;;;;;;9.18;7.00;;;;;;;15.80;45.51;92158.59;4975848;28;20066;-92
2023/01/15 10:17:55;;;;;;;9.40;7.03;;;;;;;15.74;45.50;92155.25;4989334;28;20065;-93
2023/01/15 10:20:43;;;;;;;9.95;7.38;;;;;;;15.73;45.96;92156.50;4989386;28;20034;-92
2023/01/15 10:23:25;;;;;;;21.02;11.57;;;;;;;15.82;45.58;92145.16;4982023;28;20050;-92
2023/01/15 10:25:57;;;;;;;12.20;8.70;;;;;;;15.76;45.40;92139.09;4975550;28;20034;-93
2023/01/15 10:28:26;;;;;;;15.80;9.40;;;;;;;15.79;45.99;92131.88;4979291;28;20046;-93
2023/01/15 10:31:00;;;;;;;14.55;8.63;;;;;;;15.75;45.81;92132.19;4971353;28;20046;-93
2023/01/15 10:33:56;;;;;;;11.80;8.20;;;;;;;15.74;45.75;92126.00;4970370;28;20100;-95
2023/01/15 10:36:28;;;;;;;13.05;8.40;;;;;;;15.74;45.76;92130.72;5002610;28;20053;-93
2023/01/15 10:39:02;;;;;;;11.60;9.48;;;;;;;15.74;46.08;92120.56;4968678;28;20062;-94
2023/01/15 10:41:39;;;;;;;12.70;8.98;;;;;;;15.74;45.72;92122.53;5001751;28;20069;-92
2023/01/15 10:44:19;;;;;;;11.75;8.50;;;;;;;15.72;45.98;92114.91;5003296;28;20041;-92
2023/01/15 10:46:51;;;;;;;12.07;8.87;;;;;;;15.75;45.80;92105.69;4972101;28;20058;-92
2023/01/15 10:49:17;;;;;;;11.32;8.35;;;;;;;15.74;46.00;92117.09;4972449;28;20122;-94
2023/01/15 10:51:55;;;;;;;10.88;8.07;;;;;;;15.71;45.77;92110.69;4988527;28;20054;-92
2023/01/15 10:54:37;;;;;;;17.92;14.32;;;;;;;15.76;45.77;92101.69;4967614;28;20050;-92
2023/01/15 10:57:17;;;;;;;18.52;14.00;;;;;;;15.78;45.58;92090.28;4935754;28;20050;-92
2023/01/15 10:59:50;;;;;;;12.57;9.60;;;;;;;15.81;45.52;92086.47;4938017;28;20481;-91
2023/01/15 11:02:21;;;;;;;15.23;12.20;;;;;;;15.80;45.87;92106.09;5039644;22;20042;-93
2023/01/15 11:04:48;;;;;;;13.60;11.10;;;;;;;15.82;45.67;92096.13;5005106;28;20057;-92
2023/01/15 11:07:13;;;;;;;14.18;11.10;;;;;;;15.73;45.58;92097.28;5003592;28;20034;-91
2023/01/15 11:09:40;;;;;;;13.07;10.32;;;;;;;15.69;45.96;92096.88;4982532;28;20041;-91
2023/01/15 11:20:58;;;;;;;439.30;353.88;;;;;;;15.79;45.83;92077.38;5011032;28;20045;-92
2023/01/15 11:23:23;;;;;;;309.42;243.45;;;;;;;15.74;46.46;92068.78;5012353;28;20536;-91
2023/01/15 11:25:55;;;;;;;13.02;9.88;;;;;;;15.72;46.18;92065.13;5001447;28;20026;-92
2023/01/15 11:28:38;;;;;;;12.95;11.15;;;;;;;15.75;45.73;92069.53;5009953;28;20080;-93
2023/01/15 11:31:04;;;;;;;13.85;10.77;;;;;;;15.74;45.88;92063.34;5015007;28;20037;-94
2023/01/15 11:33:31;;;;;;;10.82;8.77;;;;;;;15.79;46.03;92061.78;5015228;28;20048;-93
2023/01/15 11:35:57;;;;;;;10.70;8.50;;;;;;;15.74;46.17;92059.88;4998119;28;20576;-93
2023/01/15 11:38:29;;;;;;;12.88;9.48;;;;;;;15.73;46.21;92059.16;5001051;28;20045;-93
2023/01/15 11:40:59;;;;;;;13.70;8.95;;;;;;;15.74;45.88;92068.78;5017166;28;20057;-93
2023/01/15 11:52:05;;;;;;;15.80;11.38;;;;;;;15.68;46.37;92051.06;4984788;28;20095;-92
2023/01/15 11:54:31;;;;;;;10.13;8.45;;;;;;;15.69;46.03;92060.72;5012888;28;20038;-93
2023/01/15 11:56:56;;;;;;;15.63;11.20;;;;;;;15.73;46.14;92053.69;4980123;28;20038;-92
2023/01/15 11:59:22;;;;;;;16.98;13.82;;;;;;;15.73;46.25;92055.69;4991127;28;20054;-94
2023/01/15 12:01:58;;;;;;;13.88;9.82;;;;;;;15.73;45.97;92064.59;4996486;28;20035;-92
2023/01/15 12:04:48;;;;;;;11.43;9.25;;;;;;;15.73;45.94;92064.59;4972065;28;20062;-93
2023/01/15 12:07:13;;;;;;;11.90;9.52;;;;;;;15.77;45.87;92067.00;4986795;28;20038;-94
2023/01/15 12:09:52;;;;;;;11.88;9.23;;;;;;;15.77;45.92;92072.47;4970944;28;20089;-93
2023/01/15 12:12:21;;;;;;;10.48;9.07;;;;;;;15.76;46.01;92073.72;4965432;28;20027;-94
2023/01/15 12:14:58;;;;;;;10.18;8.38;;;;;;;15.78;45.92;92073.94;4998405;28;20553;-92
2023/01/15 12:17:41;;;;;;;11.90;8.63;;;;;;;15.72;45.92;92073.28;4961883;28;20428;-92
2023/01/15 12:20:27;;;;;;;10.95;7.90;;;;;;;15.76;46.41;92084.63;4990269;28;20049;-92
2023/01/15 12:23:25;;;;;;;13.52;9.02;;;;;;;15.76;46.17;92088.06;4999455;28;20038;-92
2023/01/15 12:26:16;;;;;;;11.27;8.45;;;;;;;15.77;46.02;92083.34;5007715;28;20034;-93
2023/01/15 12:29:14;;;;;;;9.30;7.47;;;;;;;15.75;46.38;92097.50;5016940;28;20043;-93
2023/01/15 12:31:46;;;;;;;214.85;166.77;;;;;;;15.76;46.23;92100.97;4964897;28;20054;-94
2023/01/15 12:34:16;;;;;;;69.82;48.60;;;;;;;15.76;46.15;92100.97;5005538;28;20033;-93
2023/01/15 12:36:55;;;;;;;13.15;10.32;;;;;;;15.77;46.40;92107.88;5012862;28;20049;-94
2023/01/15 12:39:23;;;;;;;10.50;8.45;;;;;;;15.81;46.33;92111.00;4992380;28;20050;-93
2023/01/15 12:45:04;;;;;;;9.45;8.30;;;;;;;15.84;46.01;92122.84;4974736;28;20029;-94
2023/01/15 12:47:33;;;;;;;8.38;7.18;;;;;;;15.79;46.29;92124.44;5007177;28;20038;-93
2023/01/15 12:50:37;;;;;;;8.93;7.30;;;;;;;15.77;46.33;92149.47;5006248;28;20043;-93
2023/01/15 12:53:09;;;;;;;9.43;7.55;;;;;;;15.78;46.24;92152.94;5013300;28;20088;-94